sensor_id;sensor_type;location;lat;lon;timestamp;temperature;humidity
30304;DHT22;17112;48.636;10.152;2022-07-23T00:00:17;26.10;47.70
30304;DHT22;17112;48.636;10.152;2022-07-23T00:02:43;26.10;48.40
30304;DHT22;17112;48.636;10.152;2022-07-23T00:05:10;26.10;48.40
30304;DHT22;17112;48.636;10.152;2022-07-23T00:07:36;26.00;48.30
30304;DHT22;17112;48.636;10.152;2022-07-23T00:10:02;26.00;48.40
30304;DHT22;17112;48.636;10.152;2022-07-23T00:12:28;25.90;48.40
30304;DHT22;17112;48.636;10.152;2022-07-23T00:14:54;25.80;48.20
30304;DHT22;17112;48.636;10.152;2022-07-23T00:17:20;25.70;47.90
30304;DHT22;17112;48.636;10.152;2022-07-23T00:19:45;25.60;47.90
30304;DHT22;17112;48.636;10.152;2022-07-23T00:22:11;25.60;48.00
30304;DHT22;17112;48.636;10.152;2022-07-23T00:24:37;25.50;48.00
30304;DHT22;17112;48.636;10.152;2022-07-23T00:27:02;25.50;48.00
30304;DHT22;17112;48.636;10.152;2022-07-23T00:29:28;25.50;48.40
30304;DHT22;17112;48.636;10.152;2022-07-23T00:31:53;25.40;48.70
30304;DHT22;17112;48.636;10.152;2022-07-23T00:34:19;25.30;48.90
30304;DHT22;17112;48.636;10.152;2022-07-23T00:36:45;25.20;48.90
30304;DHT22;17112;48.636;10.152;2022-07-23T00:39:10;25.10;49.10
30304;DHT22;17112;48.636;10.152;2022-07-23T00:41:36;25.00;49.40
30304;DHT22;17112;48.636;10.152;2022-07-23T00:44:28;25.00;49.40
30304;DHT22;17112;48.636;10.152;2022-07-23T00:46:56;24.90;50.70
30304;DHT22;17112;48.636;10.152;2022-07-23T00:49:26;24.80;50.00
30304;DHT22;17112;48.636;10.152;2022-07-23T00:51:53;24.70;50.90
30304;DHT22;17112;48.636;10.152;2022-07-23T00:54:21;24.70;50.70
30304;DHT22;17112;48.636;10.152;2022-07-23T00:56:47;24.60;51.60
30304;DHT22;17112;48.636;10.152;2022-07-23T00:59:13;24.60;51.90
30304;DHT22;17112;48.636;10.152;2022-07-23T01:01:39;24.50;52.00
30304;DHT22;17112;48.636;10.152;2022-07-23T01:04:05;24.40;52.30
30304;DHT22;17112;48.636;10.152;2022-07-23T01:06:35;24.40;52.70
30304;DHT22;17112;48.636;10.152;2022-07-23T01:09:03;24.30;53.30
30304;DHT22;17112;48.636;10.152;2022-07-23T01:11:30;24.20;53.20
30304;DHT22;17112;48.636;10.152;2022-07-23T01:13:56;24.20;53.50
30304;DHT22;17112;48.636;10.152;2022-07-23T01:16:22;24.10;53.80
30304;DHT22;17112;48.636;10.152;2022-07-23T01:18:48;24.00;54.10
30304;DHT22;17112;48.636;10.152;2022-07-23T01:21:14;24.00;54.20
30304;DHT22;17112;48.636;10.152;2022-07-23T01:23:43;24.00;54.50
30304;DHT22;17112;48.636;10.152;2022-07-23T01:26:09;23.90;54.80
30304;DHT22;17112;48.636;10.152;2022-07-23T01:28:35;23.90;55.10
30304;DHT22;17112;48.636;10.152;2022-07-23T01:31:00;23.90;55.40
30304;DHT22;17112;48.636;10.152;2022-07-23T01:33:26;23.90;55.30
30304;DHT22;17112;48.636;10.152;2022-07-23T01:35:52;23.80;55.50
30304;DHT22;17112;48.636;10.152;2022-07-23T01:38:17;23.80;56.50
30304;DHT22;17112;48.636;10.152;2022-07-23T01:40:43;23.70;56.30
30304;DHT22;17112;48.636;10.152;2022-07-23T01:43:09;23.70;56.30
30304;DHT22;17112;48.636;10.152;2022-07-23T01:45:34;23.70;56.50
30304;DHT22;17112;48.636;10.152;2022-07-23T01:48:00;23.70;56.50
30304;DHT22;17112;48.636;10.152;2022-07-23T01:50:26;23.60;56.30
30304;DHT22;17112;48.636;10.152;2022-07-23T01:52:51;23.60;56.30
30304;DHT22;17112;48.636;10.152;2022-07-23T01:55:17;23.60;56.80
30304;DHT22;17112;48.636;10.152;2022-07-23T01:57:42;23.60;57.10
30304;DHT22;17112;48.636;10.152;2022-07-23T02:00:09;23.60;57.10
30304;DHT22;17112;48.636;10.152;2022-07-23T02:02:34;23.60;57.20
30304;DHT22;17112;48.636;10.152;2022-07-23T02:05:00;23.60;57.20
30304;DHT22;17112;48.636;10.152;2022-07-23T02:07:26;23.60;57.50
30304;DHT22;17112;48.636;10.152;2022-07-23T02:09:51;23.60;57.60
30304;DHT22;17112;48.636;10.152;2022-07-23T02:12:17;23.50;57.90
30304;DHT22;17112;48.636;10.152;2022-07-23T02:14:42;23.50;57.90
30304;DHT22;17112;48.636;10.152;2022-07-23T02:17:08;23.40;58.20
30304;DHT22;17112;48.636;10.152;2022-07-23T02:19:34;23.40;58.30
30304;DHT22;17112;48.636;10.152;2022-07-23T02:21:59;23.30;58.20
30304;DHT22;17112;48.636;10.152;2022-07-23T02:24:25;23.20;58.30
30304;DHT22;17112;48.636;10.152;2022-07-23T02:26:51;23.20;58.50
30304;DHT22;17112;48.636;10.152;2022-07-23T02:29:16;23.10;58.60
30304;DHT22;17112;48.636;10.152;2022-07-23T02:31:42;23.10;58.80
30304;DHT22;17112;48.636;10.152;2022-07-23T02:34:08;23.00;58.80
30304;DHT22;17112;48.636;10.152;2022-07-23T02:36:37;22.90;59.00
30304;DHT22;17112;48.636;10.152;2022-07-23T02:39:03;22.90;59.40
30304;DHT22;17112;48.636;10.152;2022-07-23T02:41:28;22.80;59.90
30304;DHT22;17112;48.636;10.152;2022-07-23T02:43:54;22.80;59.80
30304;DHT22;17112;48.636;10.152;2022-07-23T02:46:20;22.80;60.10
30304;DHT22;17112;48.636;10.152;2022-07-23T02:48:45;22.80;60.40
30304;DHT22;17112;48.636;10.152;2022-07-23T02:51:11;22.80;60.50
30304;DHT22;17112;48.636;10.152;2022-07-23T02:53:37;22.80;60.50
30304;DHT22;17112;48.636;10.152;2022-07-23T02:56:03;22.80;60.60
30304;DHT22;17112;48.636;10.152;2022-07-23T02:58:28;22.80;60.60
30304;DHT22;17112;48.636;10.152;2022-07-23T03:00:54;22.70;60.50
30304;DHT22;17112;48.636;10.152;2022-07-23T03:03:20;22.70;60.40
30304;DHT22;17112;48.636;10.152;2022-07-23T03:05:45;22.70;60.30
30304;DHT22;17112;48.636;10.152;2022-07-23T03:08:11;22.70;60.20
30304;DHT22;17112;48.636;10.152;2022-07-23T03:10:37;22.70;60.10
30304;DHT22;17112;48.636;10.152;2022-07-23T03:13:02;22.70;60.30
30304;DHT22;17112;48.636;10.152;2022-07-23T03:15:28;22.70;60.50
30304;DHT22;17112;48.636;10.152;2022-07-23T03:17:54;22.70;60.10
30304;DHT22;17112;48.636;10.152;2022-07-23T03:20:19;22.70;60.50
30304;DHT22;17112;48.636;10.152;2022-07-23T03:22:45;22.70;60.60
30304;DHT22;17112;48.636;10.152;2022-07-23T03:25:11;22.70;60.80
30304;DHT22;17112;48.636;10.152;2022-07-23T03:27:36;22.60;60.90
30304;DHT22;17112;48.636;10.152;2022-07-23T03:30:03;22.60;61.20
30304;DHT22;17112;48.636;10.152;2022-07-23T03:32:28;22.60;61.40
30304;DHT22;17112;48.636;10.152;2022-07-23T03:34:54;22.60;61.30
30304;DHT22;17112;48.636;10.152;2022-07-23T03:37:20;22.60;61.50
30304;DHT22;17112;48.636;10.152;2022-07-23T03:39:46;22.50;61.60
30304;DHT22;17112;48.636;10.152;2022-07-23T03:42:12;22.50;61.70
30304;DHT22;17112;48.636;10.152;2022-07-23T03:44:38;22.50;61.60
30304;DHT22;17112;48.636;10.152;2022-07-23T03:47:05;22.50;61.60
30304;DHT22;17112;48.636;10.152;2022-07-23T03:49:31;22.50;61.60
30304;DHT22;17112;48.636;10.152;2022-07-23T03:51:57;22.50;61.80
30304;DHT22;17112;48.636;10.152;2022-07-23T03:54:23;22.50;61.70
30304;DHT22;17112;48.636;10.152;2022-07-23T03:56:48;22.50;61.80
30304;DHT22;17112;48.636;10.152;2022-07-23T03:59:14;22.40;61.80
30304;DHT22;17112;48.636;10.152;2022-07-23T04:01:40;22.50;61.90
30304;DHT22;17112;48.636;10.152;2022-07-23T04:04:06;22.40;61.90
30304;DHT22;17112;48.636;10.152;2022-07-23T04:06:34;22.40;62.10
30304;DHT22;17112;48.636;10.152;2022-07-23T04:09:00;22.40;62.30
30304;DHT22;17112;48.636;10.152;2022-07-23T04:11:25;22.40;62.40
30304;DHT22;17112;48.636;10.152;2022-07-23T04:13:51;22.40;62.30
30304;DHT22;17112;48.636;10.152;2022-07-23T04:16:17;22.40;62.40
30304;DHT22;17112;48.636;10.152;2022-07-23T04:18:43;22.40;62.60
30304;DHT22;17112;48.636;10.152;2022-07-23T04:21:08;22.40;62.60
30304;DHT22;17112;48.636;10.152;2022-07-23T04:23:34;22.40;62.60
30304;DHT22;17112;48.636;10.152;2022-07-23T04:26:00;22.40;62.60
30304;DHT22;17112;48.636;10.152;2022-07-23T04:28:26;22.30;62.40
30304;DHT22;17112;48.636;10.152;2022-07-23T04:30:51;22.40;62.70
30304;DHT22;17112;48.636;10.152;2022-07-23T04:33:17;22.40;62.70
30304;DHT22;17112;48.636;10.152;2022-07-23T04:35:43;22.30;62.50
30304;DHT22;17112;48.636;10.152;2022-07-23T04:38:08;22.40;62.60
30304;DHT22;17112;48.636;10.152;2022-07-23T04:40:34;22.40;62.80
30304;DHT22;17112;48.636;10.152;2022-07-23T04:43:00;22.40;62.80
30304;DHT22;17112;48.636;10.152;2022-07-23T04:45:25;22.40;62.70
30304;DHT22;17112;48.636;10.152;2022-07-23T04:47:51;22.40;62.50
30304;DHT22;17112;48.636;10.152;2022-07-23T04:50:17;22.40;62.60
30304;DHT22;17112;48.636;10.152;2022-07-23T04:52:47;22.40;62.60
30304;DHT22;17112;48.636;10.152;2022-07-23T04:55:13;22.40;62.70
30304;DHT22;17112;48.636;10.152;2022-07-23T04:57:38;22.40;62.60
30304;DHT22;17112;48.636;10.152;2022-07-23T05:00:04;22.40;62.60
30304;DHT22;17112;48.636;10.152;2022-07-23T05:02:30;22.40;62.70
30304;DHT22;17112;48.636;10.152;2022-07-23T05:04:56;22.40;62.90
30304;DHT22;17112;48.636;10.152;2022-07-23T05:07:21;22.40;63.10
30304;DHT22;17112;48.636;10.152;2022-07-23T05:09:47;22.40;63.10
30304;DHT22;17112;48.636;10.152;2022-07-23T05:12:13;22.40;63.10
30304;DHT22;17112;48.636;10.152;2022-07-23T05:14:38;22.50;63.00
30304;DHT22;17112;48.636;10.152;2022-07-23T05:17:04;22.50;62.90
30304;DHT22;17112;48.636;10.152;2022-07-23T05:19:30;22.50;63.00
30304;DHT22;17112;48.636;10.152;2022-07-23T05:21:55;22.50;63.10
30304;DHT22;17112;48.636;10.152;2022-07-23T05:24:21;22.60;63.20
30304;DHT22;17112;48.636;10.152;2022-07-23T05:26:46;22.60;63.10
30304;DHT22;17112;48.636;10.152;2022-07-23T05:29:12;22.70;63.30
30304;DHT22;17112;48.636;10.152;2022-07-23T05:31:38;22.80;63.40
30304;DHT22;17112;48.636;10.152;2022-07-23T05:34:03;22.90;63.40
30304;DHT22;17112;48.636;10.152;2022-07-23T05:36:31;22.90;63.10
30304;DHT22;17112;48.636;10.152;2022-07-23T05:38:57;23.00;63.40
30304;DHT22;17112;48.636;10.152;2022-07-23T05:41:23;23.10;63.00
30304;DHT22;17112;48.636;10.152;2022-07-23T05:43:49;23.20;62.60
30304;DHT22;17112;48.636;10.152;2022-07-23T05:46:15;23.30;63.00
30304;DHT22;17112;48.636;10.152;2022-07-23T05:48:41;23.40;62.00
30304;DHT22;17112;48.636;10.152;2022-07-23T05:51:08;23.50;61.70
30304;DHT22;17112;48.636;10.152;2022-07-23T05:53:34;23.50;61.80
30304;DHT22;17112;48.636;10.152;2022-07-23T05:56:00;23.70;62.10
30304;DHT22;17112;48.636;10.152;2022-07-23T05:58:26;23.80;62.10
30304;DHT22;17112;48.636;10.152;2022-07-23T06:00:52;23.90;62.10
30304;DHT22;17112;48.636;10.152;2022-07-23T06:03:18;24.10;61.70
30304;DHT22;17112;48.636;10.152;2022-07-23T06:05:43;24.30;61.20
30304;DHT22;17112;48.636;10.152;2022-07-23T06:08:09;24.40;61.00
30304;DHT22;17112;48.636;10.152;2022-07-23T06:10:35;24.60;60.50
30304;DHT22;17112;48.636;10.152;2022-07-23T06:13:00;24.70;60.00
30304;DHT22;17112;48.636;10.152;2022-07-23T06:15:26;24.80;59.40
30304;DHT22;17112;48.636;10.152;2022-07-23T06:17:52;24.90;58.90
30304;DHT22;17112;48.636;10.152;2022-07-23T06:20:17;24.90;58.80
30304;DHT22;17112;48.636;10.152;2022-07-23T06:22:43;25.00;58.60
30304;DHT22;17112;48.636;10.152;2022-07-23T06:25:09;25.00;58.50
30304;DHT22;17112;48.636;10.152;2022-07-23T06:27:34;25.00;58.50
30304;DHT22;17112;48.636;10.152;2022-07-23T06:30:00;25.00;58.40
30304;DHT22;17112;48.636;10.152;2022-07-23T06:32:26;25.00;58.40
30304;DHT22;17112;48.636;10.152;2022-07-23T06:34:51;25.00;58.40
30304;DHT22;17112;48.636;10.152;2022-07-23T06:37:17;25.10;58.80
30304;DHT22;17112;48.636;10.152;2022-07-23T06:39:43;25.20;59.00
30304;DHT22;17112;48.636;10.152;2022-07-23T06:42:08;25.30;58.50
30304;DHT22;17112;48.636;10.152;2022-07-23T06:44:35;25.40;58.00
30304;DHT22;17112;48.636;10.152;2022-07-23T06:47:01;25.60;57.60
30304;DHT22;17112;48.636;10.152;2022-07-23T06:49:27;25.70;56.90
30304;DHT22;17112;48.636;10.152;2022-07-23T06:51:52;25.90;56.40
30304;DHT22;17112;48.636;10.152;2022-07-23T06:54:18;26.00;56.80
30304;DHT22;17112;48.636;10.152;2022-07-23T06:56:44;26.10;56.50
30304;DHT22;17112;48.636;10.152;2022-07-23T06:59:09;26.30;55.80
30304;DHT22;17112;48.636;10.152;2022-07-23T07:01:35;26.40;54.40
30304;DHT22;17112;48.636;10.152;2022-07-23T07:04:01;26.60;54.10
30304;DHT22;17112;48.636;10.152;2022-07-23T07:06:26;26.70;53.90
30304;DHT22;17112;48.636;10.152;2022-07-23T07:08:52;26.80;53.50
30304;DHT22;17112;48.636;10.152;2022-07-23T07:11:18;26.80;52.90
30304;DHT22;17112;48.636;10.152;2022-07-23T07:13:44;26.90;52.20
30304;DHT22;17112;48.636;10.152;2022-07-23T07:16:09;27.00;51.50
30304;DHT22;17112;48.636;10.152;2022-07-23T07:18:35;27.10;51.00
30304;DHT22;17112;48.636;10.152;2022-07-23T07:21:01;27.10;50.30
30304;DHT22;17112;48.636;10.152;2022-07-23T07:23:26;27.10;50.70
30304;DHT22;17112;48.636;10.152;2022-07-23T07:25:52;27.20;51.00
30304;DHT22;17112;48.636;10.152;2022-07-23T07:28:17;27.20;50.50
30304;DHT22;17112;48.636;10.152;2022-07-23T07:30:43;27.30;50.30
30304;DHT22;17112;48.636;10.152;2022-07-23T07:33:09;27.30;49.80
30304;DHT22;17112;48.636;10.152;2022-07-23T07:35:34;27.40;50.50
30304;DHT22;17112;48.636;10.152;2022-07-23T07:38:00;27.60;49.90
30304;DHT22;17112;48.636;10.152;2022-07-23T07:40:26;27.70;49.80
30304;DHT22;17112;48.636;10.152;2022-07-23T07:42:53;27.80;49.30
30304;DHT22;17112;48.636;10.152;2022-07-23T07:45:20;27.90;48.90
30304;DHT22;17112;48.636;10.152;2022-07-23T07:47:47;28.00;49.00
30304;DHT22;17112;48.636;10.152;2022-07-23T07:50:13;28.00;49.60
30304;DHT22;17112;48.636;10.152;2022-07-23T07:52:39;28.10;48.30
30304;DHT22;17112;48.636;10.152;2022-07-23T07:55:06;28.20;47.90
30304;DHT22;17112;48.636;10.152;2022-07-23T07:57:33;28.30;48.00
30304;DHT22;17112;48.636;10.152;2022-07-23T07:59:59;28.40;47.80
30304;DHT22;17112;48.636;10.152;2022-07-23T08:02:24;28.50;47.90
30304;DHT22;17112;48.636;10.152;2022-07-23T08:04:50;28.50;47.60
30304;DHT22;17112;48.636;10.152;2022-07-23T08:07:16;28.60;47.80
30304;DHT22;17112;48.636;10.152;2022-07-23T08:09:42;28.80;47.50
30304;DHT22;17112;48.636;10.152;2022-07-23T08:12:08;28.80;47.30
30304;DHT22;17112;48.636;10.152;2022-07-23T08:14:34;29.00;47.10
30304;DHT22;17112;48.636;10.152;2022-07-23T08:16:59;29.10;47.00
30304;DHT22;17112;48.636;10.152;2022-07-23T08:19:25;29.10;46.90
30304;DHT22;17112;48.636;10.152;2022-07-23T08:21:51;29.10;46.60
30304;DHT22;17112;48.636;10.152;2022-07-23T08:24:16;29.10;46.40
30304;DHT22;17112;48.636;10.152;2022-07-23T08:26:42;29.10;46.60
30304;DHT22;17112;48.636;10.152;2022-07-23T08:29:08;29.20;46.80
30304;DHT22;17112;48.636;10.152;2022-07-23T08:31:34;29.30;47.00
30304;DHT22;17112;48.636;10.152;2022-07-23T08:34:00;29.50;46.90
30304;DHT22;17112;48.636;10.152;2022-07-23T08:36:25;29.60;46.40
30304;DHT22;17112;48.636;10.152;2022-07-23T08:38:53;29.70;46.10
30304;DHT22;17112;48.636;10.152;2022-07-23T08:41:20;29.90;45.80
30304;DHT22;17112;48.636;10.152;2022-07-23T08:43:46;30.10;44.90
30304;DHT22;17112;48.636;10.152;2022-07-23T08:46:13;30.10;43.50
30304;DHT22;17112;48.636;10.152;2022-07-23T08:48:39;30.10;43.00
30304;DHT22;17112;48.636;10.152;2022-07-23T08:51:06;30.00;42.70
30304;DHT22;17112;48.636;10.152;2022-07-23T08:53:33;29.90;42.50
30304;DHT22;17112;48.636;10.152;2022-07-23T08:56:02;29.80;42.90
30304;DHT22;17112;48.636;10.152;2022-07-23T08:58:28;29.70;43.30
30304;DHT22;17112;48.636;10.152;2022-07-23T09:00:55;29.70;43.20
30304;DHT22;17112;48.636;10.152;2022-07-23T09:03:34;29.80;42.80
30304;DHT22;17112;48.636;10.152;2022-07-23T09:06:00;29.70;42.70
30304;DHT22;17112;48.636;10.152;2022-07-23T09:08:40;29.70;42.80
30304;DHT22;17112;48.636;10.152;2022-07-23T09:11:08;29.60;42.70
30304;DHT22;17112;48.636;10.152;2022-07-23T09:13:42;29.60;43.60
30304;DHT22;17112;48.636;10.152;2022-07-23T09:16:40;29.60;43.60
30304;DHT22;17112;48.636;10.152;2022-07-23T09:19:07;29.60;43.60
30304;DHT22;17112;48.636;10.152;2022-07-23T09:21:34;29.50;43.90
30304;DHT22;17112;48.636;10.152;2022-07-23T09:26:47;29.50;44.10
30304;DHT22;17112;48.636;10.152;2022-07-23T09:29:18;29.60;43.40
30304;DHT22;17112;48.636;10.152;2022-07-23T09:31:52;29.70;43.70
30304;DHT22;17112;48.636;10.152;2022-07-23T09:34:25;29.70;43.50
30304;DHT22;17112;48.636;10.152;2022-07-23T09:36:57;29.80;43.50
30304;DHT22;17112;48.636;10.152;2022-07-23T09:39:31;30.00;43.70
30304;DHT22;17112;48.636;10.152;2022-07-23T09:41:58;30.00;43.50
30304;DHT22;17112;48.636;10.152;2022-07-23T09:44:44;30.00;42.70
30304;DHT22;17112;48.636;10.152;2022-07-23T09:47:10;30.00;42.40
30304;DHT22;17112;48.636;10.152;2022-07-23T09:49:35;29.90;42.50
30304;DHT22;17112;48.636;10.152;2022-07-23T09:52:03;29.80;42.90
30304;DHT22;17112;48.636;10.152;2022-07-23T09:54:36;29.70;43.00
30304;DHT22;17112;48.636;10.152;2022-07-23T09:57:11;29.80;43.30
30304;DHT22;17112;48.636;10.152;2022-07-23T09:59:41;29.90;43.20
30304;DHT22;17112;48.636;10.152;2022-07-23T10:02:08;30.00;43.20
30304;DHT22;17112;48.636;10.152;2022-07-23T10:04:35;30.00;42.60
30304;DHT22;17112;48.636;10.152;2022-07-23T10:07:02;30.10;42.60
30304;DHT22;17112;48.636;10.152;2022-07-23T10:09:31;30.00;42.30
30304;DHT22;17112;48.636;10.152;2022-07-23T10:11:59;30.00;42.60
30304;DHT22;17112;48.636;10.152;2022-07-23T10:14:51;30.00;42.80
30304;DHT22;17112;48.636;10.152;2022-07-23T10:17:17;30.00;42.90
30304;DHT22;17112;48.636;10.152;2022-07-23T10:19:44;30.00;42.50
30304;DHT22;17112;48.636;10.152;2022-07-23T10:22:19;30.00;42.50
30304;DHT22;17112;48.636;10.152;2022-07-23T10:27:44;30.00;43.40
30304;DHT22;17112;48.636;10.152;2022-07-23T10:35:37;30.40;43.80
30304;DHT22;17112;48.636;10.152;2022-07-23T10:38:13;30.60;44.10
30304;DHT22;17112;48.636;10.152;2022-07-23T10:40:54;30.70;44.40
30304;DHT22;17112;48.636;10.152;2022-07-23T10:43:20;30.90;43.00
30304;DHT22;17112;48.636;10.152;2022-07-23T10:45:46;31.00;42.60
30304;DHT22;17112;48.636;10.152;2022-07-23T10:48:15;31.00;42.00
30304;DHT22;17112;48.636;10.152;2022-07-23T10:50:42;31.00;41.70
30304;DHT22;17112;48.636;10.152;2022-07-23T10:53:17;31.00;42.20
30304;DHT22;17112;48.636;10.152;2022-07-23T10:55:49;31.00;42.10
30304;DHT22;17112;48.636;10.152;2022-07-23T10:58:20;30.90;41.60
30304;DHT22;17112;48.636;10.152;2022-07-23T11:00:46;30.80;41.60
30304;DHT22;17112;48.636;10.152;2022-07-23T11:03:31;30.80;41.40
30304;DHT22;17112;48.636;10.152;2022-07-23T11:06:02;30.70;42.20
30304;DHT22;17112;48.636;10.152;2022-07-23T11:08:28;30.70;43.20
30304;DHT22;17112;48.636;10.152;2022-07-23T11:13:31;31.00;42.30
30304;DHT22;17112;48.636;10.152;2022-07-23T11:24:02;31.70;41.40
30304;DHT22;17112;48.636;10.152;2022-07-23T11:32:31;32.00;40.20
30304;DHT22;17112;48.636;10.152;2022-07-23T11:34:59;31.90;39.00
30304;DHT22;17112;48.636;10.152;2022-07-23T11:37:39;31.80;39.60
30304;DHT22;17112;48.636;10.152;2022-07-23T11:40:08;31.70;39.30
30304;DHT22;17112;48.636;10.152;2022-07-23T11:42:36;31.50;39.70
30304;DHT22;17112;48.636;10.152;2022-07-23T11:45:03;31.50;40.10
30304;DHT22;17112;48.636;10.152;2022-07-23T11:47:28;31.40;40.40
30304;DHT22;17112;48.636;10.152;2022-07-23T11:49:56;31.30;40.30
30304;DHT22;17112;48.636;10.152;2022-07-23T11:52:23;31.30;40.40
30304;DHT22;17112;48.636;10.152;2022-07-23T11:54:53;31.30;40.40
30304;DHT22;17112;48.636;10.152;2022-07-23T11:57:21;31.20;40.00
30304;DHT22;17112;48.636;10.152;2022-07-23T11:59:52;31.20;40.30
30304;DHT22;17112;48.636;10.152;2022-07-23T12:02:20;31.20;40.70
30304;DHT22;17112;48.636;10.152;2022-07-23T12:04:49;31.20;40.60
30304;DHT22;17112;48.636;10.152;2022-07-23T12:09:56;31.10;40.20
30304;DHT22;17112;48.636;10.152;2022-07-23T12:12:23;31.10;40.60
30304;DHT22;17112;48.636;10.152;2022-07-23T12:14:57;31.00;40.60
30304;DHT22;17112;48.636;10.152;2022-07-23T12:17:32;31.00;40.60
30304;DHT22;17112;48.636;10.152;2022-07-23T12:19:59;31.00;40.70
30304;DHT22;17112;48.636;10.152;2022-07-23T12:22:26;30.90;40.60
30304;DHT22;17112;48.636;10.152;2022-07-23T12:25:00;31.00;41.10
30304;DHT22;17112;48.636;10.152;2022-07-23T12:27:28;31.00;41.10
30304;DHT22;17112;48.636;10.152;2022-07-23T12:29:54;31.00;41.00
30304;DHT22;17112;48.636;10.152;2022-07-23T12:32:25;31.00;40.00
30304;DHT22;17112;48.636;10.152;2022-07-23T12:35:06;30.90;39.90
30304;DHT22;17112;48.636;10.152;2022-07-23T12:37:34;30.90;39.70
30304;DHT22;17112;48.636;10.152;2022-07-23T12:40:23;30.80;40.10
30304;DHT22;17112;48.636;10.152;2022-07-23T12:42:51;30.80;40.30
30304;DHT22;17112;48.636;10.152;2022-07-23T12:45:17;30.80;40.20
30304;DHT22;17112;48.636;10.152;2022-07-23T12:47:56;30.90;39.60
30304;DHT22;17112;48.636;10.152;2022-07-23T12:50:38;30.80;39.40
30304;DHT22;17112;48.636;10.152;2022-07-23T12:53:07;30.80;39.90
30304;DHT22;17112;48.636;10.152;2022-07-23T12:55:34;30.90;40.40
30304;DHT22;17112;48.636;10.152;2022-07-23T12:58:08;31.00;40.90
30304;DHT22;17112;48.636;10.152;2022-07-23T13:01:03;31.20;40.40
30304;DHT22;17112;48.636;10.152;2022-07-23T13:03:32;31.40;39.30
30304;DHT22;17112;48.636;10.152;2022-07-23T13:06:01;31.60;40.00
30304;DHT22;17112;48.636;10.152;2022-07-23T13:08:29;31.90;39.80
30304;DHT22;17112;48.636;10.152;2022-07-23T13:10:56;32.10;39.00
30304;DHT22;17112;48.636;10.152;2022-07-23T13:13:24;32.30;38.20
30304;DHT22;17112;48.636;10.152;2022-07-23T13:15:50;32.40;38.50
30304;DHT22;17112;48.636;10.152;2022-07-23T13:18:16;32.50;38.20
30304;DHT22;17112;48.636;10.152;2022-07-23T13:20:43;32.60;37.60
30304;DHT22;17112;48.636;10.152;2022-07-23T13:23:09;32.60;37.10
30304;DHT22;17112;48.636;10.152;2022-07-23T13:25:34;32.70;37.40
30304;DHT22;17112;48.636;10.152;2022-07-23T13:28:00;32.70;37.30
30304;DHT22;17112;48.636;10.152;2022-07-23T13:30:26;32.80;37.00
30304;DHT22;17112;48.636;10.152;2022-07-23T13:32:52;32.90;37.10
30304;DHT22;17112;48.636;10.152;2022-07-23T13:35:18;32.90;37.00
30304;DHT22;17112;48.636;10.152;2022-07-23T13:37:44;33.10;36.50
30304;DHT22;17112;48.636;10.152;2022-07-23T13:40:10;33.20;36.20
30304;DHT22;17112;48.636;10.152;2022-07-23T13:42:36;33.40;36.50
30304;DHT22;17112;48.636;10.152;2022-07-23T13:45:04;33.50;35.70
30304;DHT22;17112;48.636;10.152;2022-07-23T13:47:30;33.60;35.00
30304;DHT22;17112;48.636;10.152;2022-07-23T13:49:56;33.70;35.20
30304;DHT22;17112;48.636;10.152;2022-07-23T13:52:22;33.70;35.00
30304;DHT22;17112;48.636;10.152;2022-07-23T13:54:48;33.80;34.90
30304;DHT22;17112;48.636;10.152;2022-07-23T13:57:13;33.90;35.10
30304;DHT22;17112;48.636;10.152;2022-07-23T13:59:39;34.10;34.90
30304;DHT22;17112;48.636;10.152;2022-07-23T14:02:05;34.30;34.40
30304;DHT22;17112;48.636;10.152;2022-07-23T14:04:31;34.50;34.00
30304;DHT22;17112;48.636;10.152;2022-07-23T14:06:57;34.60;33.30
30304;DHT22;17112;48.636;10.152;2022-07-23T14:09:23;34.60;33.00
30304;DHT22;17112;48.636;10.152;2022-07-23T14:11:49;34.50;32.60
30304;DHT22;17112;48.636;10.152;2022-07-23T14:14:18;34.30;32.60
30304;DHT22;17112;48.636;10.152;2022-07-23T14:16:44;34.20;32.60
30304;DHT22;17112;48.636;10.152;2022-07-23T14:19:10;34.00;33.10
30304;DHT22;17112;48.636;10.152;2022-07-23T14:21:36;33.80;32.90
30304;DHT22;17112;48.636;10.152;2022-07-23T14:24:02;33.70;33.70
30304;DHT22;17112;48.636;10.152;2022-07-23T14:26:28;33.60;33.90
30304;DHT22;17112;48.636;10.152;2022-07-23T14:28:53;33.60;33.80
30304;DHT22;17112;48.636;10.152;2022-07-23T14:31:19;33.80;33.30
30304;DHT22;17112;48.636;10.152;2022-07-23T14:33:45;33.80;32.80
30304;DHT22;17112;48.636;10.152;2022-07-23T14:36:10;33.80;32.30
30304;DHT22;17112;48.636;10.152;2022-07-23T14:38:36;33.80;32.70
30304;DHT22;17112;48.636;10.152;2022-07-23T14:41:02;33.80;33.10
30304;DHT22;17112;48.636;10.152;2022-07-23T14:43:32;33.90;33.40
30304;DHT22;17112;48.636;10.152;2022-07-23T14:45:59;34.10;33.10
30304;DHT22;17112;48.636;10.152;2022-07-23T14:48:25;34.20;32.70
30304;DHT22;17112;48.636;10.152;2022-07-23T14:50:50;34.30;32.00
30304;DHT22;17112;48.636;10.152;2022-07-23T14:53:16;34.30;31.40
30304;DHT22;17112;48.636;10.152;2022-07-23T14:55:42;34.40;31.90
30304;DHT22;17112;48.636;10.152;2022-07-23T14:58:07;34.40;31.40
30304;DHT22;17112;48.636;10.152;2022-07-23T15:00:34;34.50;32.00
30304;DHT22;17112;48.636;10.152;2022-07-23T15:02:59;34.50;31.30
30304;DHT22;17112;48.636;10.152;2022-07-23T15:05:25;34.40;31.00
30304;DHT22;17112;48.636;10.152;2022-07-23T15:07:51;34.40;30.60
30304;DHT22;17112;48.636;10.152;2022-07-23T15:10:17;34.40;30.70
30304;DHT22;17112;48.636;10.152;2022-07-23T15:12:43;34.40;31.90
30304;DHT22;17112;48.636;10.152;2022-07-23T15:15:09;34.60;31.80
30304;DHT22;17112;48.636;10.152;2022-07-23T15:17:34;34.70;30.80
30304;DHT22;17112;48.636;10.152;2022-07-23T15:20:00;34.70;30.00
30304;DHT22;17112;48.636;10.152;2022-07-23T15:22:26;34.60;29.90
30304;DHT22;17112;48.636;10.152;2022-07-23T15:24:53;34.30;30.00
30304;DHT22;17112;48.636;10.152;2022-07-23T15:27:19;34.10;30.10
30304;DHT22;17112;48.636;10.152;2022-07-23T15:29:45;33.80;30.10
30304;DHT22;17112;48.636;10.152;2022-07-23T15:32:11;33.60;30.50
30304;DHT22;17112;48.636;10.152;2022-07-23T15:34:39;33.40;31.20
30304;DHT22;17112;48.636;10.152;2022-07-23T15:37:05;33.40;32.20
30304;DHT22;17112;48.636;10.152;2022-07-23T15:39:32;33.40;32.70
30304;DHT22;17112;48.636;10.152;2022-07-23T15:41:59;33.50;33.60
30304;DHT22;17112;48.636;10.152;2022-07-23T15:44:25;33.50;32.70